sensor_id;sensor_type;location;lat;lon;timestamp;temperature;humidity
28244;DHT22;15510;52.512;13.300;2023-12-20T00:01:39;7.30;99.90
28244;DHT22;15510;52.512;13.300;2023-12-20T00:04:06;7.30;99.90
28244;DHT22;15510;52.512;13.300;2023-12-20T00:06:34;7.40;99.90
28244;DHT22;15510;52.512;13.300;2023-12-20T00:09:03;7.30;99.90
28244;DHT22;15510;52.512;13.300;2023-12-20T00:11:29;7.40;99.90
28244;DHT22;15510;52.512;13.300;2023-12-20T00:13:57;7.40;99.90
28244;DHT22;15510;52.512;13.300;2023-12-20T00:16:23;7.40;99.90
28244;DHT22;15510;52.512;13.300;2023-12-20T00:18:49;7.40;99.90
28244;DHT22;15510;52.512;13.300;2023-12-20T00:21:14;7.30;99.90
28244;DHT22;15510;52.512;13.300;2023-12-20T00:23:43;7.30;99.90
28244;DHT22;15510;52.512;13.300;2023-12-20T00:26:08;7.30;99.90
28244;DHT22;15510;52.512;13.300;2023-12-20T00:28:37;7.40;99.90
28244;DHT22;15510;52.512;13.300;2023-12-20T00:31:05;7.40;99.90
28244;DHT22;15510;52.512;13.300;2023-12-20T00:33:31;7.40;99.90
28244;DHT22;15510;52.512;13.300;2023-12-20T00:35:57;7.40;99.90
28244;DHT22;15510;52.512;13.300;2023-12-20T00:38:23;7.30;99.90
28244;DHT22;15510;52.512;13.300;2023-12-20T00:40:51;7.40;99.90
28244;DHT22;15510;52.512;13.300;2023-12-20T00:43:17;7.40;99.90
28244;DHT22;15510;52.512;13.300;2023-12-20T00:45:42;7.30;99.90
28244;DHT22;15510;52.512;13.300;2023-12-20T00:48:08;7.30;99.90
28244;DHT22;15510;52.512;13.300;2023-12-20T00:50:40;7.30;99.90
28244;DHT22;15510;52.512;13.300;2023-12-20T00:53:06;7.30;99.90
28244;DHT22;15510;52.512;13.300;2023-12-20T00:55:33;7.40;99.90
28244;DHT22;15510;52.512;13.300;2023-12-20T00:58:01;7.40;99.90
28244;DHT22;15510;52.512;13.300;2023-12-20T01:00:27;7.40;99.90
28244;DHT22;15510;52.512;13.300;2023-12-20T01:02:53;7.40;99.90
28244;DHT22;15510;52.512;13.300;2023-12-20T01:05:19;7.40;99.90
28244;DHT22;15510;52.512;13.300;2023-12-20T01:07:50;7.40;99.90
28244;DHT22;15510;52.512;13.300;2023-12-20T01:10:16;7.40;99.90
28244;DHT22;15510;52.512;13.300;2023-12-20T01:12:43;7.50;99.90
28244;DHT22;15510;52.512;13.300;2023-12-20T01:15:09;7.50;99.90
28244;DHT22;15510;52.512;13.300;2023-12-20T01:17:36;7.50;99.90
28244;DHT22;15510;52.512;13.300;2023-12-20T01:20:02;7.50;99.90
28244;DHT22;15510;52.512;13.300;2023-12-20T01:22:28;7.50;99.90
28244;DHT22;15510;52.512;13.300;2023-12-20T01:24:54;7.50;99.90
28244;DHT22;15510;52.512;13.300;2023-12-20T01:27:22;7.50;99.90
28244;DHT22;15510;52.512;13.300;2023-12-20T01:29:51;7.50;99.90
28244;DHT22;15510;52.512;13.300;2023-12-20T01:32:17;7.50;99.90
28244;DHT22;15510;52.512;13.300;2023-12-20T01:34:43;7.50;99.90
28244;DHT22;15510;52.512;13.300;2023-12-20T01:37:08;7.60;99.90
28244;DHT22;15510;52.512;13.300;2023-12-20T01:39:34;7.60;99.90
28244;DHT22;15510;52.512;13.300;2023-12-20T01:42:00;7.50;99.90
28244;DHT22;15510;52.512;13.300;2023-12-20T01:44:26;7.50;99.90
28244;DHT22;15510;52.512;13.300;2023-12-20T01:46:52;7.40;99.90
28244;DHT22;15510;52.512;13.300;2023-12-20T01:49:24;7.40;99.90
28244;DHT22;15510;52.512;13.300;2023-12-20T01:51:50;7.40;99.90
28244;DHT22;15510;52.512;13.300;2023-12-20T01:54:17;7.50;99.90
28244;DHT22;15510;52.512;13.300;2023-12-20T01:56:48;7.50;99.90
28244;DHT22;15510;52.512;13.300;2023-12-20T01:59:19;7.60;99.90
28244;DHT22;15510;52.512;13.300;2023-12-20T02:01:46;7.70;99.90
28244;DHT22;15510;52.512;13.300;2023-12-20T02:04:12;7.70;99.90
28244;DHT22;15510;52.512;13.300;2023-12-20T02:06:40;7.70;99.90
28244;DHT22;15510;52.512;13.300;2023-12-20T02:09:07;7.70;99.90
28244;DHT22;15510;52.512;13.300;2023-12-20T02:11:33;7.80;99.90
28244;DHT22;15510;52.512;13.300;2023-12-20T02:14:01;7.80;99.90
28244;DHT22;15510;52.512;13.300;2023-12-20T02:16:27;7.80;99.90
28244;DHT22;15510;52.512;13.300;2023-12-20T02:18:53;7.70;99.90
28244;DHT22;15510;52.512;13.300;2023-12-20T02:21:25;7.70;99.90
28244;DHT22;15510;52.512;13.300;2023-12-20T02:23:51;7.70;99.90
28244;DHT22;15510;52.512;13.300;2023-12-20T02:26:17;7.70;99.90
28244;DHT22;15510;52.512;13.300;2023-12-20T02:28:44;7.80;99.90
28244;DHT22;15510;52.512;13.300;2023-12-20T02:31:09;7.70;99.90
28244;DHT22;15510;52.512;13.300;2023-12-20T02:33:35;7.80;99.90
28244;DHT22;15510;52.512;13.300;2023-12-20T02:36:01;7.70;99.90
28244;DHT22;15510;52.512;13.300;2023-12-20T02:38:27;7.70;99.90
28244;DHT22;15510;52.512;13.300;2023-12-20T02:40:53;7.60;99.90
28244;DHT22;15510;52.512;13.300;2023-12-20T02:43:18;7.60;99.90
28244;DHT22;15510;52.512;13.300;2023-12-20T02:45:44;7.70;99.90
28244;DHT22;15510;52.512;13.300;2023-12-20T02:48:10;7.70;99.90
28244;DHT22;15510;52.512;13.300;2023-12-20T02:50:36;7.70;99.90
28244;DHT22;15510;52.512;13.300;2023-12-20T02:53:01;7.70;99.90
28244;DHT22;15510;52.512;13.300;2023-12-20T02:55:27;7.70;99.90
28244;DHT22;15510;52.512;13.300;2023-12-20T02:57:53;7.70;99.90
28244;DHT22;15510;52.512;13.300;2023-12-20T03:00:19;7.70;99.90
28244;DHT22;15510;52.512;13.300;2023-12-20T03:02:44;7.80;99.90
28244;DHT22;15510;52.512;13.300;2023-12-20T03:05:10;7.80;99.90
28244;DHT22;15510;52.512;13.300;2023-12-20T03:07:37;7.80;99.90
28244;DHT22;15510;52.512;13.300;2023-12-20T03:10:04;7.80;99.90
28244;DHT22;15510;52.512;13.300;2023-12-20T03:12:31;7.80;99.90
28244;DHT22;15510;52.512;13.300;2023-12-20T03:14:57;7.80;99.90
28244;DHT22;15510;52.512;13.300;2023-12-20T03:17:23;7.80;99.90
28244;DHT22;15510;52.512;13.300;2023-12-20T03:19:48;7.80;99.90
28244;DHT22;15510;52.512;13.300;2023-12-20T03:22:15;7.80;99.90
28244;DHT22;15510;52.512;13.300;2023-12-20T03:24:41;7.80;99.90
28244;DHT22;15510;52.512;13.300;2023-12-20T03:27:06;7.90;99.90
28244;DHT22;15510;52.512;13.300;2023-12-20T03:29:32;7.90;99.90
28244;DHT22;15510;52.512;13.300;2023-12-20T03:31:58;7.80;99.90
28244;DHT22;15510;52.512;13.300;2023-12-20T03:34:23;7.90;99.90
28244;DHT22;15510;52.512;13.300;2023-12-20T03:36:49;7.80;99.90
28244;DHT22;15510;52.512;13.300;2023-12-20T03:39:15;7.80;99.90
28244;DHT22;15510;52.512;13.300;2023-12-20T03:41:41;7.70;99.90
28244;DHT22;15510;52.512;13.300;2023-12-20T03:44:06;7.70;99.90
28244;DHT22;15510;52.512;13.300;2023-12-20T03:46:32;7.70;99.90
28244;DHT22;15510;52.512;13.300;2023-12-20T03:48:58;7.80;99.90
28244;DHT22;15510;52.512;13.300;2023-12-20T03:51:24;7.80;99.90
28244;DHT22;15510;52.512;13.300;2023-12-20T03:53:49;7.70;99.90
28244;DHT22;15510;52.512;13.300;2023-12-20T03:56:15;7.70;99.90
28244;DHT22;15510;52.512;13.300;2023-12-20T03:58:41;7.70;99.90
28244;DHT22;15510;52.512;13.300;2023-12-20T04:01:10;7.60;99.90
28244;DHT22;15510;52.512;13.300;2023-12-20T04:03:39;7.60;99.90
28244;DHT22;15510;52.512;13.300;2023-12-20T04:06:05;7.60;99.90
28244;DHT22;15510;52.512;13.300;2023-12-20T04:08:31;7.60;99.90
28244;DHT22;15510;52.512;13.300;2023-12-20T04:10:57;7.70;99.90
28244;DHT22;15510;52.512;13.300;2023-12-20T04:13:23;7.60;99.90
28244;DHT22;15510;52.512;13.300;2023-12-20T04:15:48;7.60;99.90
28244;DHT22;15510;52.512;13.300;2023-12-20T04:18:16;7.70;99.90
28244;DHT22;15510;52.512;13.300;2023-12-20T04:20:42;7.70;99.90
28244;DHT22;15510;52.512;13.300;2023-12-20T04:23:08;7.80;99.90
28244;DHT22;15510;52.512;13.300;2023-12-20T04:25:33;7.70;99.90
28244;DHT22;15510;52.512;13.300;2023-12-20T04:27:59;7.60;99.90
28244;DHT22;15510;52.512;13.300;2023-12-20T04:30:25;7.60;99.90
28244;DHT22;15510;52.512;13.300;2023-12-20T04:32:51;7.50;99.90
28244;DHT22;15510;52.512;13.300;2023-12-20T04:35:16;7.50;99.90
28244;DHT22;15510;52.512;13.300;2023-12-20T04:37:42;7.50;99.90
28244;DHT22;15510;52.512;13.300;2023-12-20T04:40:08;7.50;99.90
28244;DHT22;15510;52.512;13.300;2023-12-20T04:42:34;7.40;99.90
28244;DHT22;15510;52.512;13.300;2023-12-20T04:44:59;7.60;99.90
28244;DHT22;15510;52.512;13.300;2023-12-20T04:47:25;7.50;99.90
28244;DHT22;15510;52.512;13.300;2023-12-20T04:49:51;7.60;99.90
28244;DHT22;15510;52.512;13.300;2023-12-20T04:52:17;7.50;99.90
28244;DHT22;15510;52.512;13.300;2023-12-20T04:54:42;7.30;99.90
28244;DHT22;15510;52.512;13.300;2023-12-20T04:57:08;7.20;99.90
28244;DHT22;15510;52.512;13.300;2023-12-20T04:59:34;7.30;99.90
28244;DHT22;15510;52.512;13.300;2023-12-20T05:02:00;7.30;99.90
28244;DHT22;15510;52.512;13.300;2023-12-20T05:04:26;7.40;99.90
28244;DHT22;15510;52.512;13.300;2023-12-20T05:06:51;7.50;99.90
28244;DHT22;15510;52.512;13.300;2023-12-20T05:09:17;7.40;99.90
28244;DHT22;15510;52.512;13.300;2023-12-20T05:11:43;7.30;99.90
28244;DHT22;15510;52.512;13.300;2023-12-20T05:14:08;7.20;99.90
28244;DHT22;15510;52.512;13.300;2023-12-20T05:16:34;7.10;99.90
28244;DHT22;15510;52.512;13.300;2023-12-20T05:19:00;7.10;99.90
28244;DHT22;15510;52.512;13.300;2023-12-20T05:21:27;7.10;99.90
28244;DHT22;15510;52.512;13.300;2023-12-20T05:23:53;7.10;99.90
28244;DHT22;15510;52.512;13.300;2023-12-20T05:26:19;7.10;99.90
28244;DHT22;15510;52.512;13.300;2023-12-20T05:28:45;7.10;99.90
28244;DHT22;15510;52.512;13.300;2023-12-20T05:31:10;7.00;99.90
28244;DHT22;15510;52.512;13.300;2023-12-20T05:33:36;6.90;99.90
28244;DHT22;15510;52.512;13.300;2023-12-20T05:36:02;6.80;99.90
28244;DHT22;15510;52.512;13.300;2023-12-20T05:38:28;6.70;99.90
28244;DHT22;15510;52.512;13.300;2023-12-20T05:40:54;6.70;99.90
28244;DHT22;15510;52.512;13.300;2023-12-20T05:43:20;6.60;99.90
28244;DHT22;15510;52.512;13.300;2023-12-20T05:45:45;6.50;99.90
28244;DHT22;15510;52.512;13.300;2023-12-20T05:48:12;6.50;99.90
28244;DHT22;15510;52.512;13.300;2023-12-20T05:50:38;6.40;99.90
28244;DHT22;15510;52.512;13.300;2023-12-20T05:53:04;6.40;99.90
28244;DHT22;15510;52.512;13.300;2023-12-20T05:55:30;6.40;99.90
28244;DHT22;15510;52.512;13.300;2023-12-20T05:57:56;6.40;99.90
28244;DHT22;15510;52.512;13.300;2023-12-20T06:00:22;6.40;99.90
28244;DHT22;15510;52.512;13.300;2023-12-20T06:02:47;6.40;99.90
28244;DHT22;15510;52.512;13.300;2023-12-20T06:05:13;6.40;99.90
28244;DHT22;15510;52.512;13.300;2023-12-20T06:07:39;6.30;99.90
28244;DHT22;15510;52.512;13.300;2023-12-20T06:10:05;6.30;99.90
28244;DHT22;15510;52.512;13.300;2023-12-20T06:12:31;6.20;99.90
28244;DHT22;15510;52.512;13.300;2023-12-20T06:14:58;6.30;99.90
28244;DHT22;15510;52.512;13.300;2023-12-20T06:17:24;6.20;99.90
28244;DHT22;15510;52.512;13.300;2023-12-20T06:19:50;6.10;99.90
28244;DHT22;15510;52.512;13.300;2023-12-20T06:22:16;6.10;99.90
28244;DHT22;15510;52.512;13.300;2023-12-20T06:24:41;6.10;99.90
28244;DHT22;15510;52.512;13.300;2023-12-20T06:27:07;6.10;99.90
28244;DHT22;15510;52.512;13.300;2023-12-20T06:29:33;6.10;99.90
28244;DHT22;15510;52.512;13.300;2023-12-20T06:32:00;6.10;99.90
28244;DHT22;15510;52.512;13.300;2023-12-20T06:34:26;6.10;99.90
28244;DHT22;15510;52.512;13.300;2023-12-20T06:36:51;6.10;99.90
28244;DHT22;15510;52.512;13.300;2023-12-20T06:39:17;6.20;99.90
28244;DHT22;15510;52.512;13.300;2023-12-20T06:41:44;6.20;99.90
28244;DHT22;15510;52.512;13.300;2023-12-20T06:44:11;6.20;99.90
28244;DHT22;15510;52.512;13.300;2023-12-20T06:46:43;6.20;99.90
28244;DHT22;15510;52.512;13.300;2023-12-20T06:49:09;6.10;99.90
28244;DHT22;15510;52.512;13.300;2023-12-20T06:51:35;6.10;99.90
28244;DHT22;15510;52.512;13.300;2023-12-20T06:54:01;6.10;99.90
28244;DHT22;15510;52.512;13.300;2023-12-20T06:56:28;6.10;99.90
28244;DHT22;15510;52.512;13.300;2023-12-20T06:58:54;6.30;99.90
28244;DHT22;15510;52.512;13.300;2023-12-20T07:01:19;6.30;99.90
28244;DHT22;15510;52.512;13.300;2023-12-20T07:03:45;6.30;99.90
28244;DHT22;15510;52.512;13.300;2023-12-20T07:06:11;6.30;99.90
28244;DHT22;15510;52.512;13.300;2023-12-20T07:08:37;6.30;99.90
28244;DHT22;15510;52.512;13.300;2023-12-20T07:11:03;6.30;99.90
28244;DHT22;15510;52.512;13.300;2023-12-20T07:13:30;6.30;99.90
28244;DHT22;15510;52.512;13.300;2023-12-20T07:15:55;6.30;99.90
28244;DHT22;15510;52.512;13.300;2023-12-20T07:18:21;6.20;99.90
28244;DHT22;15510;52.512;13.300;2023-12-20T07:20:47;6.30;99.90
28244;DHT22;15510;52.512;13.300;2023-12-20T07:23:13;6.30;99.90
28244;DHT22;15510;52.512;13.300;2023-12-20T07:25:39;6.20;99.90
28244;DHT22;15510;52.512;13.300;2023-12-20T07:28:05;6.20;99.90
28244;DHT22;15510;52.512;13.300;2023-12-20T07:30:33;6.20;99.90
28244;DHT22;15510;52.512;13.300;2023-12-20T07:32:59;6.20;99.90
28244;DHT22;15510;52.512;13.300;2023-12-20T07:35:26;6.30;99.90
28244;DHT22;15510;52.512;13.300;2023-12-20T07:37:52;6.30;99.90
28244;DHT22;15510;52.512;13.300;2023-12-20T07:40:17;6.30;99.90
28244;DHT22;15510;52.512;13.300;2023-12-20T07:42:43;6.30;99.90
28244;DHT22;15510;52.512;13.300;2023-12-20T07:45:09;6.30;99.90
28244;DHT22;15510;52.512;13.300;2023-12-20T07:47:36;6.30;99.90
28244;DHT22;15510;52.512;13.300;2023-12-20T07:50:02;6.30;99.90
28244;DHT22;15510;52.512;13.300;2023-12-20T07:52:29;6.30;99.90
28244;DHT22;15510;52.512;13.300;2023-12-20T07:54:55;6.20;99.90
28244;DHT22;15510;52.512;13.300;2023-12-20T07:57:21;6.30;99.90
28244;DHT22;15510;52.512;13.300;2023-12-20T07:59:47;6.30;99.90
28244;DHT22;15510;52.512;13.300;2023-12-20T08:02:12;6.30;99.90
28244;DHT22;15510;52.512;13.300;2023-12-20T08:04:38;6.30;99.90
28244;DHT22;15510;52.512;13.300;2023-12-20T08:07:04;6.30;99.90
28244;DHT22;15510;52.512;13.300;2023-12-20T08:09:30;6.30;99.90
28244;DHT22;15510;52.512;13.300;2023-12-20T08:11:56;6.30;99.90
28244;DHT22;15510;52.512;13.300;2023-12-20T08:14:22;6.30;99.90
28244;DHT22;15510;52.512;13.300;2023-12-20T08:16:47;6.40;99.90
28244;DHT22;15510;52.512;13.300;2023-12-20T08:19:13;6.40;99.90
28244;DHT22;15510;52.512;13.300;2023-12-20T08:21:39;6.40;99.90
28244;DHT22;15510;52.512;13.300;2023-12-20T08:24:05;6.40;99.90
28244;DHT22;15510;52.512;13.300;2023-12-20T08:26:31;6.40;99.90
28244;DHT22;15510;52.512;13.300;2023-12-20T08:28:56;6.40;99.90
28244;DHT22;15510;52.512;13.300;2023-12-20T08:31:22;6.50;99.90
28244;DHT22;15510;52.512;13.300;2023-12-20T08:33:49;6.40;99.90
28244;DHT22;15510;52.512;13.300;2023-12-20T08:36:15;6.50;99.90
28244;DHT22;15510;52.512;13.300;2023-12-20T08:38:43;6.40;99.90
28244;DHT22;15510;52.512;13.300;2023-12-20T08:41:09;6.40;99.90
28244;DHT22;15510;52.512;13.300;2023-12-20T08:43:35;6.40;99.90
28244;DHT22;15510;52.512;13.300;2023-12-20T08:46:01;6.50;99.90
28244;DHT22;15510;52.512;13.300;2023-12-20T08:48:29;6.50;99.90
28244;DHT22;15510;52.512;13.300;2023-12-20T08:50:58;6.60;99.90
28244;DHT22;15510;52.512;13.300;2023-12-20T08:53:30;6.60;99.90
28244;DHT22;15510;52.512;13.300;2023-12-20T08:55:56;6.60;99.90
28244;DHT22;15510;52.512;13.300;2023-12-20T08:58:27;6.70;99.90
28244;DHT22;15510;52.512;13.300;2023-12-20T09:00:53;6.70;99.90
28244;DHT22;15510;52.512;13.300;2023-12-20T09:03:18;6.70;99.90
28244;DHT22;15510;52.512;13.300;2023-12-20T09:05:44;6.60;99.90
28244;DHT22;15510;52.512;13.300;2023-12-20T09:08:10;6.70;99.90
28244;DHT22;15510;52.512;13.300;2023-12-20T09:10:37;6.70;99.90
28244;DHT22;15510;52.512;13.300;2023-12-20T09:13:03;6.70;99.90
28244;DHT22;15510;52.512;13.300;2023-12-20T09:15:29;6.80;99.90
28244;DHT22;15510;52.512;13.300;2023-12-20T09:17:56;6.90;99.90
28244;DHT22;15510;52.512;13.300;2023-12-20T09:20:22;6.90;99.90
28244;DHT22;15510;52.512;13.300;2023-12-20T09:22:50;6.90;99.90
28244;DHT22;15510;52.512;13.300;2023-12-20T09:25:16;6.90;99.90
28244;DHT22;15510;52.512;13.300;2023-12-20T09:27:43;6.90;99.90
28244;DHT22;15510;52.512;13.300;2023-12-20T09:30:09;6.90;99.90
28244;DHT22;15510;52.512;13.300;2023-12-20T09:32:35;6.90;99.90
28244;DHT22;15510;52.512;13.300;2023-12-20T09:35:02;7.00;99.90
28244;DHT22;15510;52.512;13.300;2023-12-20T09:37:28;7.00;99.90
28244;DHT22;15510;52.512;13.300;2023-12-20T09:39:54;7.00;99.90
28244;DHT22;15510;52.512;13.300;2023-12-20T09:42:29;7.00;99.90
28244;DHT22;15510;52.512;13.300;2023-12-20T09:45:01;7.10;99.90
28244;DHT22;15510;52.512;13.300;2023-12-20T09:47:27;7.10;99.90
28244;DHT22;15510;52.512;13.300;2023-12-20T09:49:54;7.10;99.90
28244;DHT22;15510;52.512;13.300;2023-12-20T09:52:21;7.20;99.90
28244;DHT22;15510;52.512;13.300;2023-12-20T09:54:49;7.20;99.90
28244;DHT22;15510;52.512;13.300;2023-12-20T09:57:18;7.20;99.90
28244;DHT22;15510;52.512;13.300;2023-12-20T09:59:43;7.20;99.90
28244;DHT22;15510;52.512;13.300;2023-12-20T10:02:13;7.20;99.90
28244;DHT22;15510;52.512;13.300;2023-12-20T10:04:46;7.20;99.90
28244;DHT22;15510;52.512;13.300;2023-12-20T10:07:13;7.20;99.90
28244;DHT22;15510;52.512;13.300;2023-12-20T10:09:39;7.20;99.90
28244;DHT22;15510;52.512;13.300;2023-12-20T10:12:05;7.30;99.90
28244;DHT22;15510;52.512;13.300;2023-12-20T10:14:32;7.30;99.90
28244;DHT22;15510;52.512;13.300;2023-12-20T10:17:05;7.30;99.90
28244;DHT22;15510;52.512;13.300;2023-12-20T10:19:31;7.30;99.90
28244;DHT22;15510;52.512;13.300;2023-12-20T10:21:59;7.20;99.90
28244;DHT22;15510;52.512;13.300;2023-12-20T10:24:25;7.30;99.90
28244;DHT22;15510;52.512;13.300;2023-12-20T10:27:03;7.30;99.90
28244;DHT22;15510;52.512;13.300;2023-12-20T10:29:38;7.30;99.90
28244;DHT22;15510;52.512;13.300;2023-12-20T10:32:24;7.20;99.90
28244;DHT22;15510;52.512;13.300;2023-12-20T10:34:51;7.20;99.90
28244;DHT22;15510;52.512;13.300;2023-12-20T10:37:17;7.20;99.90
28244;DHT22;15510;52.512;13.300;2023-12-20T10:39:43;7.30;99.90
28244;DHT22;15510;52.512;13.300;2023-12-20T10:42:13;7.30;99.90
28244;DHT22;15510;52.512;13.300;2023-12-20T10:44:40;7.30;99.90
28244;DHT22;15510;52.512;13.300;2023-12-20T10:47:06;7.40;99.90
28244;DHT22;15510;52.512;13.300;2023-12-20T10:49:36;7.50;99.90
28244;DHT22;15510;52.512;13.300;2023-12-20T10:52:04;7.50;99.90
28244;DHT22;15510;52.512;13.300;2023-12-20T10:54:33;7.40;99.90
28244;DHT22;15510;52.512;13.300;2023-12-20T10:57:00;7.40;99.90
28244;DHT22;15510;52.512;13.300;2023-12-20T10:59:27;7.40;99.90
28244;DHT22;15510;52.512;13.300;2023-12-20T11:01:56;7.40;99.90
28244;DHT22;15510;52.512;13.300;2023-12-20T11:04:39;7.40;99.90
28244;DHT22;15510;52.512;13.300;2023-12-20T11:07:22;7.30;99.90
28244;DHT22;15510;52.512;13.300;2023-12-20T11:09:58;7.30;99.90
28244;DHT22;15510;52.512;13.300;2023-12-20T11:12:34;7.30;99.90
28244;DHT22;15510;52.512;13.300;2023-12-20T11:15:03;7.30;99.90
28244;DHT22;15510;52.512;13.300;2023-12-20T11:17:31;7.30;99.90
28244;DHT22;15510;52.512;13.300;2023-12-20T11:22:30;7.30;99.90
28244;DHT22;15510;52.512;13.300;2023-12-20T11:27:30;7.20;99.90
28244;DHT22;15510;52.512;13.300;2023-12-20T11:29:59;7.20;99.90
28244;DHT22;15510;52.512;13.300;2023-12-20T11:34:59;7.20;99.90
28244;DHT22;15510;52.512;13.300;2023-12-20T11:37:43;7.20;99.90
28244;DHT22;15510;52.512;13.300;2023-12-20T11:40:15;7.20;99.90
28244;DHT22;15510;52.512;13.300;2023-12-20T11:42:44;7.30;99.90
28244;DHT22;15510;52.512;13.300;2023-12-20T11:45:13;7.30;99.90
28244;DHT22;15510;52.512;13.300;2023-12-20T11:47:45;7.40;99.90
28244;DHT22;15510;52.512;13.300;2023-12-20T11:50:14;7.40;99.90
28244;DHT22;15510;52.512;13.300;2023-12-20T11:52:43;7.40;99.90
28244;DHT22;15510;52.512;13.300;2023-12-20T11:55:08;7.40;99.90
28244;DHT22;15510;52.512;13.300;2023-12-20T11:57:35;7.40;99.90
28244;DHT22;15510;52.512;13.300;2023-12-20T12:00:07;7.30;99.90
28244;DHT22;15510;52.512;13.300;2023-12-20T12:02:40;7.30;99.90
28244;DHT22;15510;52.512;13.300;2023-12-20T12:05:06;7.40;99.90
28244;DHT22;15510;52.512;13.300;2023-12-20T12:07:33;7.40;99.90
28244;DHT22;15510;52.512;13.300;2023-12-20T12:09:59;7.30;99.90
28244;DHT22;15510;52.512;13.300;2023-12-20T12:12:25;7.30;99.90
28244;DHT22;15510;52.512;13.300;2023-12-20T12:14:55;7.30;99.90
28244;DHT22;15510;52.512;13.300;2023-12-20T12:17:23;7.30;99.90
28244;DHT22;15510;52.512;13.300;2023-12-20T12:19:49;7.30;99.90
28244;DHT22;15510;52.512;13.300;2023-12-20T12:22:15;7.40;99.90
28244;DHT22;15510;52.512;13.300;2023-12-20T12:24:48;7.40;99.90
28244;DHT22;15510;52.512;13.300;2023-12-20T12:27:15;7.30;99.90
28244;DHT22;15510;52.512;13.300;2023-12-20T12:30:03;7.40;99.90
28244;DHT22;15510;52.512;13.300;2023-12-20T12:32:29;7.30;99.90
28244;DHT22;15510;52.512;13.300;2023-12-20T12:34:55;7.30;99.90
28244;DHT22;15510;52.512;13.300;2023-12-20T12:37:22;7.20;99.90
28244;DHT22;15510;52.512;13.300;2023-12-20T12:39:49;7.20;99.90
28244;DHT22;15510;52.512;13.300;2023-12-20T12:42:15;7.10;99.90
28244;DHT22;15510;52.512;13.300;2023-12-20T12:44:41;7.10;99.90
28244;DHT22;15510;52.512;13.300;2023-12-20T12:47:06;7.00;99.90
28244;DHT22;15510;52.512;13.300;2023-12-20T12:49:33;7.00;99.90
28244;DHT22;15510;52.512;13.300;2023-12-20T12:52:02;6.90;99.90
28244;DHT22;15510;52.512;13.300;2023-12-20T12:54:28;6.90;99.90
28244;DHT22;15510;52.512;13.300;2023-12-20T12:56:54;6.90;99.90
28244;DHT22;15510;52.512;13.300;2023-12-20T12:59:23;6.90;99.90
28244;DHT22;15510;52.512;13.300;2023-12-20T13:01:48;6.90;99.90
28244;DHT22;15510;52.512;13.300;2023-12-20T13:04:14;6.90;99.90
28244;DHT22;15510;52.512;13.300;2023-12-20T13:06:40;6.90;99.90
28244;DHT22;15510;52.512;13.300;2023-12-20T13:09:07;7.00;99.90
28244;DHT22;15510;52.512;13.300;2023-12-20T13:11:35;7.00;99.90
28244;DHT22;15510;52.512;13.300;2023-12-20T13:14:01;7.00;99.90
28244;DHT22;15510;52.512;13.300;2023-12-20T13:16:27;7.00;99.90
28244;DHT22;15510;52.512;13.300;2023-12-20T13:18:53;7.20;99.90
28244;DHT22;15510;52.512;13.300;2023-12-20T13:21:18;7.10;99.90
28244;DHT22;15510;52.512;13.300;2023-12-20T13:23:44;7.10;99.90
28244;DHT22;15510;52.512;13.300;2023-12-20T13:26:12;7.00;99.90
28244;DHT22;15510;52.512;13.300;2023-12-20T13:28:38;6.80;99.90
28244;DHT22;15510;52.512;13.300;2023-12-20T13:31:05;6.60;99.90
28244;DHT22;15510;52.512;13.300;2023-12-20T13:33:31;6.40;99.90
28244;DHT22;15510;52.512;13.300;2023-12-20T13:35:56;6.30;99.90
28244;DHT22;15510;52.512;13.300;2023-12-20T13:38:23;6.20;99.90
28244;DHT22;15510;52.512;13.300;2023-12-20T13:40:51;6.10;99.90
28244;DHT22;15510;52.512;13.300;2023-12-20T13:43:17;6.00;99.90
28244;DHT22;15510;52.512;13.300;2023-12-20T13:45:47;6.00;99.90
28244;DHT22;15510;52.512;13.300;2023-12-20T13:48:13;6.00;99.90
28244;DHT22;15510;52.512;13.300;2023-12-20T13:50:39;5.90;99.90
28244;DHT22;15510;52.512;13.300;2023-12-20T13:53:04;5.90;99.90
28244;DHT22;15510;52.512;13.300;2023-12-20T13:55:31;5.90;99.90
28244;DHT22;15510;52.512;13.300;2023-12-20T13:57:57;5.90;99.90
28244;DHT22;15510;52.512;13.300;2023-12-20T14:00:23;5.80;99.90
28244;DHT22;15510;52.512;13.300;2023-12-20T14:02:49;5.80;99.90
28244;DHT22;15510;52.512;13.300;2023-12-20T14:05:16;5.80;99.90
28244;DHT22;15510;52.512;13.300;2023-12-20T14:07:43;5.80;99.90
28244;DHT22;15510;52.512;13.300;2023-12-20T14:10:13;5.80;99.90
28244;DHT22;15510;52.512;13.300;2023-12-20T14:12:39;5.80;99.90
28244;DHT22;15510;52.512;13.300;2023-12-20T14:15:06;5.70;99.90
28244;DHT22;15510;52.512;13.300;2023-12-20T14:17:40;5.70;99.90
28244;DHT22;15510;52.512;13.300;2023-12-20T14:20:08;5.70;99.90
28244;DHT22;15510;52.512;13.300;2023-12-20T14:22:34;5.70;99.90
28244;DHT22;15510;52.512;13.300;2023-12-20T14:25:00;5.60;99.90
28244;DHT22;15510;52.512;13.300;2023-12-20T14:27:35;5.60;99.90
28244;DHT22;15510;52.512;13.300;2023-12-20T14:30:00;5.50;99.90
28244;DHT22;15510;52.512;13.300;2023-12-20T14:32:26;5.50;99.90
28244;DHT22;15510;52.512;13.300;2023-12-20T14:34:53;5.60;99.90
28244;DHT22;15510;52.512;13.300;2023-12-20T14:37:20;5.60;99.90
28244;DHT22;15510;52.512;13.300;2023-12-20T14:39:46;5.60;99.90
28244;DHT22;15510;52.512;13.300;2023-12-20T14:42:12;5.60;99.90
28244;DHT22;15510;52.512;13.300;2023-12-20T14:44:43;5.70;99.90
28244;DHT22;15510;52.512;13.300;2023-12-20T14:47:09;5.60;99.90
28244;DHT22;15510;52.512;13.300;2023-12-20T14:49:35;5.60;99.90
28244;DHT22;15510;52.512;13.300;2023-12-20T14:52:03;5.60;99.90
28244;DHT22;15510;52.512;13.300;2023-12-20T14:54:29;5.70;99.90
28244;DHT22;15510;52.512;13.300;2023-12-20T14:56:57;5.70;99.90
28244;DHT22;15510;52.512;13.300;2023-12-20T14:59:22;5.70;99.90
28244;DHT22;15510;52.512;13.300;2023-12-20T15:01:48;5.70;99.90
28244;DHT22;15510;52.512;13.300;2023-12-20T15:04:14;5.70;99.90
28244;DHT22;15510;52.512;13.300;2023-12-20T15:06:40;5.70;99.90
28244;DHT22;15510;52.512;13.300;2023-12-20T15:09:06;5.60;99.90
28244;DHT22;15510;52.512;13.300;2023-12-20T15:11:31;5.60;99.90
28244;DHT22;15510;52.512;13.300;2023-12-20T15:13:57;5.70;99.90
28244;DHT22;15510;52.512;13.300;2023-12-20T15:16:25;5.70;99.90
28244;DHT22;15510;52.512;13.300;2023-12-20T15:18:54;5.70;99.90
28244;DHT22;15510;52.512;13.300;2023-12-20T15:21:20;5.70;99.90
28244;DHT22;15510;52.512;13.300;2023-12-20T15:23:55;5.70;99.90
28244;DHT22;15510;52.512;13.300;2023-12-20T15:26:37;5.60;99.90
28244;DHT22;15510;52.512;13.300;2023-12-20T15:29:05;5.60;99.90
28244;DHT22;15510;52.512;13.300;2023-12-20T15:31:32;5.60;99.90
28244;DHT22;15510;52.512;13.300;2023-12-20T15:33:59;5.60;99.90
28244;DHT22;15510;52.512;13.300;2023-12-20T15:36:25;5.60;99.90